sensor_id;sensor_type;location;lat;lon;timestamp;temperature;humidity
77582;DHT22;66726;52.388;9.986;2023-11-21T00:00:48;8.50;99.90
77582;DHT22;66726;52.388;9.986;2023-11-21T00:03:17;8.60;99.90
77582;DHT22;66726;52.388;9.986;2023-11-21T00:05:46;8.50;99.90
77582;DHT22;66726;52.388;9.986;2023-11-21T00:08:14;8.50;99.90
77582;DHT22;66726;52.388;9.986;2023-11-21T00:10:42;8.50;99.90
77582;DHT22;66726;52.388;9.986;2023-11-21T00:13:11;8.50;99.90
77582;DHT22;66726;52.388;9.986;2023-11-21T00:15:40;8.50;99.90
77582;DHT22;66726;52.388;9.986;2023-11-21T00:18:09;8.50;99.90
77582;DHT22;66726;52.388;9.986;2023-11-21T00:20:38;8.50;99.90
77582;DHT22;66726;52.388;9.986;2023-11-21T00:23:06;8.60;99.90
77582;DHT22;66726;52.388;9.986;2023-11-21T00:25:34;8.60;99.90
77582;DHT22;66726;52.388;9.986;2023-11-21T00:28:02;8.50;99.90
77582;DHT22;66726;52.388;9.986;2023-11-21T00:30:31;8.50;99.90
77582;DHT22;66726;52.388;9.986;2023-11-21T00:33:00;8.40;99.90
77582;DHT22;66726;52.388;9.986;2023-11-21T00:35:29;8.40;99.90
77582;DHT22;66726;52.388;9.986;2023-11-21T00:37:57;8.50;99.90
77582;DHT22;66726;52.388;9.986;2023-11-21T00:40:25;8.40;99.90
77582;DHT22;66726;52.388;9.986;2023-11-21T00:42:54;8.50;99.90
77582;DHT22;66726;52.388;9.986;2023-11-21T00:45:25;8.50;99.90
77582;DHT22;66726;52.388;9.986;2023-11-21T00:47:53;8.50;99.90
77582;DHT22;66726;52.388;9.986;2023-11-21T00:50:22;8.40;99.90
77582;DHT22;66726;52.388;9.986;2023-11-21T00:52:52;8.50;99.90
77582;DHT22;66726;52.388;9.986;2023-11-21T00:55:20;8.50;99.90
77582;DHT22;66726;52.388;9.986;2023-11-21T00:57:48;8.50;99.90
77582;DHT22;66726;52.388;9.986;2023-11-21T01:00:17;8.40;99.90
77582;DHT22;66726;52.388;9.986;2023-11-21T01:02:45;8.40;99.90
77582;DHT22;66726;52.388;9.986;2023-11-21T01:05:15;8.40;99.90
77582;DHT22;66726;52.388;9.986;2023-11-21T01:07:43;8.40;99.90
77582;DHT22;66726;52.388;9.986;2023-11-21T01:10:13;8.40;99.90
77582;DHT22;66726;52.388;9.986;2023-11-21T01:12:41;8.40;99.90
77582;DHT22;66726;52.388;9.986;2023-11-21T01:15:09;8.40;99.90
77582;DHT22;66726;52.388;9.986;2023-11-21T01:17:39;8.40;99.90
77582;DHT22;66726;52.388;9.986;2023-11-21T01:20:08;8.40;99.90
77582;DHT22;66726;52.388;9.986;2023-11-21T01:22:40;8.40;99.90
77582;DHT22;66726;52.388;9.986;2023-11-21T01:25:09;8.40;99.90
77582;DHT22;66726;52.388;9.986;2023-11-21T01:27:39;8.40;99.90
77582;DHT22;66726;52.388;9.986;2023-11-21T01:30:07;8.30;99.90
77582;DHT22;66726;52.388;9.986;2023-11-21T01:32:37;8.30;99.90
77582;DHT22;66726;52.388;9.986;2023-11-21T01:35:06;8.30;99.90
77582;DHT22;66726;52.388;9.986;2023-11-21T01:37:36;8.30;99.90
77582;DHT22;66726;52.388;9.986;2023-11-21T01:40:06;8.20;99.90
77582;DHT22;66726;52.388;9.986;2023-11-21T01:42:36;8.30;99.90
77582;DHT22;66726;52.388;9.986;2023-11-21T01:45:07;8.20;99.90
77582;DHT22;66726;52.388;9.986;2023-11-21T01:47:36;8.30;99.90
77582;DHT22;66726;52.388;9.986;2023-11-21T01:50:07;8.30;99.90
77582;DHT22;66726;52.388;9.986;2023-11-21T01:52:43;8.30;99.90
77582;DHT22;66726;52.388;9.986;2023-11-21T01:55:15;8.30;99.90
77582;DHT22;66726;52.388;9.986;2023-11-21T01:57:55;8.30;99.90
77582;DHT22;66726;52.388;9.986;2023-11-21T02:00:25;8.30;99.90
77582;DHT22;66726;52.388;9.986;2023-11-21T02:02:55;8.20;99.90
77582;DHT22;66726;52.388;9.986;2023-11-21T02:05:24;8.30;99.90
77582;DHT22;66726;52.388;9.986;2023-11-21T02:07:53;8.30;99.90
77582;DHT22;66726;52.388;9.986;2023-11-21T02:10:21;8.30;99.90
77582;DHT22;66726;52.388;9.986;2023-11-21T02:12:51;8.30;99.90
77582;DHT22;66726;52.388;9.986;2023-11-21T02:15:19;8.30;99.90
77582;DHT22;66726;52.388;9.986;2023-11-21T02:17:50;8.30;99.90
77582;DHT22;66726;52.388;9.986;2023-11-21T02:20:20;8.30;99.90
77582;DHT22;66726;52.388;9.986;2023-11-21T02:22:53;8.30;99.90
77582;DHT22;66726;52.388;9.986;2023-11-21T02:25:25;8.30;99.90
77582;DHT22;66726;52.388;9.986;2023-11-21T02:27:55;8.30;99.90
77582;DHT22;66726;52.388;9.986;2023-11-21T02:30:23;8.30;99.90
77582;DHT22;66726;52.388;9.986;2023-11-21T02:32:52;8.30;99.90
77582;DHT22;66726;52.388;9.986;2023-11-21T02:35:21;8.30;99.90
77582;DHT22;66726;52.388;9.986;2023-11-21T02:37:49;8.30;99.90
77582;DHT22;66726;52.388;9.986;2023-11-21T02:40:19;8.30;99.90
77582;DHT22;66726;52.388;9.986;2023-11-21T02:42:48;8.30;99.90
77582;DHT22;66726;52.388;9.986;2023-11-21T02:45:19;8.30;99.90
77582;DHT22;66726;52.388;9.986;2023-11-21T02:47:49;8.30;99.90
77582;DHT22;66726;52.388;9.986;2023-11-21T02:50:17;8.30;99.90
77582;DHT22;66726;52.388;9.986;2023-11-21T02:52:47;8.20;99.90
77582;DHT22;66726;52.388;9.986;2023-11-21T02:55:15;8.20;99.90
77582;DHT22;66726;52.388;9.986;2023-11-21T02:57:45;8.20;99.90
77582;DHT22;66726;52.388;9.986;2023-11-21T03:00:14;8.20;99.90
77582;DHT22;66726;52.388;9.986;2023-11-21T03:02:42;8.30;99.90
77582;DHT22;66726;52.388;9.986;2023-11-21T03:05:11;8.30;99.90
77582;DHT22;66726;52.388;9.986;2023-11-21T03:07:39;8.30;99.90
77582;DHT22;66726;52.388;9.986;2023-11-21T03:10:08;8.30;99.90
77582;DHT22;66726;52.388;9.986;2023-11-21T03:12:38;8.30;99.90
77582;DHT22;66726;52.388;9.986;2023-11-21T03:15:08;8.30;99.90
77582;DHT22;66726;52.388;9.986;2023-11-21T03:17:37;8.30;99.90
77582;DHT22;66726;52.388;9.986;2023-11-21T03:20:06;8.40;99.90
77582;DHT22;66726;52.388;9.986;2023-11-21T03:22:38;8.40;99.90
77582;DHT22;66726;52.388;9.986;2023-11-21T03:25:07;8.30;99.90
77582;DHT22;66726;52.388;9.986;2023-11-21T03:27:38;8.30;99.90
77582;DHT22;66726;52.388;9.986;2023-11-21T03:30:09;8.30;99.90
77582;DHT22;66726;52.388;9.986;2023-11-21T03:32:38;8.30;99.90
77582;DHT22;66726;52.388;9.986;2023-11-21T03:35:07;8.30;99.90
77582;DHT22;66726;52.388;9.986;2023-11-21T03:37:35;8.30;99.90
77582;DHT22;66726;52.388;9.986;2023-11-21T03:40:06;8.30;99.90
77582;DHT22;66726;52.388;9.986;2023-11-21T03:42:35;8.30;99.90
77582;DHT22;66726;52.388;9.986;2023-11-21T03:45:04;8.30;99.90
77582;DHT22;66726;52.388;9.986;2023-11-21T03:47:35;8.40;99.90
77582;DHT22;66726;52.388;9.986;2023-11-21T03:50:04;8.30;99.90
77582;DHT22;66726;52.388;9.986;2023-11-21T03:52:33;8.30;99.90
77582;DHT22;66726;52.388;9.986;2023-11-21T03:55:01;8.30;99.90
77582;DHT22;66726;52.388;9.986;2023-11-21T03:57:30;8.30;99.90
77582;DHT22;66726;52.388;9.986;2023-11-21T03:59:58;8.30;99.90
77582;DHT22;66726;52.388;9.986;2023-11-21T04:02:26;8.30;99.90
77582;DHT22;66726;52.388;9.986;2023-11-21T04:04:56;8.40;99.90
77582;DHT22;66726;52.388;9.986;2023-11-21T04:07:25;8.30;99.90
77582;DHT22;66726;52.388;9.986;2023-11-21T04:09:53;8.40;99.90
77582;DHT22;66726;52.388;9.986;2023-11-21T04:12:21;8.40;99.90
77582;DHT22;66726;52.388;9.986;2023-11-21T04:14:50;8.40;99.90
77582;DHT22;66726;52.388;9.986;2023-11-21T04:17:21;8.40;99.90
77582;DHT22;66726;52.388;9.986;2023-11-21T04:19:50;8.40;99.90
77582;DHT22;66726;52.388;9.986;2023-11-21T04:22:19;8.40;99.90
77582;DHT22;66726;52.388;9.986;2023-11-21T04:24:47;8.40;99.90
77582;DHT22;66726;52.388;9.986;2023-11-21T04:27:15;8.40;99.90
77582;DHT22;66726;52.388;9.986;2023-11-21T04:29:44;8.40;99.90
77582;DHT22;66726;52.388;9.986;2023-11-21T04:32:12;8.30;99.90
77582;DHT22;66726;52.388;9.986;2023-11-21T04:34:41;8.40;99.90
77582;DHT22;66726;52.388;9.986;2023-11-21T04:37:09;8.40;99.90
77582;DHT22;66726;52.388;9.986;2023-11-21T04:39:39;8.40;99.90
77582;DHT22;66726;52.388;9.986;2023-11-21T04:42:07;8.40;99.90
77582;DHT22;66726;52.388;9.986;2023-11-21T04:44:35;8.40;99.90
77582;DHT22;66726;52.388;9.986;2023-11-21T04:47:03;8.40;99.90
77582;DHT22;66726;52.388;9.986;2023-11-21T04:49:32;8.30;99.90
77582;DHT22;66726;52.388;9.986;2023-11-21T04:52:00;8.40;99.90
77582;DHT22;66726;52.388;9.986;2023-11-21T04:54:30;8.30;99.90
77582;DHT22;66726;52.388;9.986;2023-11-21T04:57:00;8.40;99.90
77582;DHT22;66726;52.388;9.986;2023-11-21T04:59:28;8.30;99.90
77582;DHT22;66726;52.388;9.986;2023-11-21T05:01:56;8.40;99.90
77582;DHT22;66726;52.388;9.986;2023-11-21T05:04:24;8.40;99.90
77582;DHT22;66726;52.388;9.986;2023-11-21T05:06:53;8.40;99.90
77582;DHT22;66726;52.388;9.986;2023-11-21T05:09:21;8.40;99.90
77582;DHT22;66726;52.388;9.986;2023-11-21T05:11:49;8.40;99.90
77582;DHT22;66726;52.388;9.986;2023-11-21T05:14:18;8.40;99.90
77582;DHT22;66726;52.388;9.986;2023-11-21T05:16:47;8.40;99.90
77582;DHT22;66726;52.388;9.986;2023-11-21T05:19:15;8.50;99.90
77582;DHT22;66726;52.388;9.986;2023-11-21T05:21:43;8.50;99.90
77582;DHT22;66726;52.388;9.986;2023-11-21T05:24:11;8.50;99.90
77582;DHT22;66726;52.388;9.986;2023-11-21T05:26:40;8.40;99.90
77582;DHT22;66726;52.388;9.986;2023-11-21T05:29:08;8.40;99.90
77582;DHT22;66726;52.388;9.986;2023-11-21T05:31:38;8.40;99.90
77582;DHT22;66726;52.388;9.986;2023-11-21T05:34:07;8.40;99.90
77582;DHT22;66726;52.388;9.986;2023-11-21T05:36:35;8.40;99.90
77582;DHT22;66726;52.388;9.986;2023-11-21T05:39:03;8.40;99.90
77582;DHT22;66726;52.388;9.986;2023-11-21T05:41:31;8.40;99.90
77582;DHT22;66726;52.388;9.986;2023-11-21T05:43:59;8.40;99.90
77582;DHT22;66726;52.388;9.986;2023-11-21T05:46:28;8.50;99.90
77582;DHT22;66726;52.388;9.986;2023-11-21T05:48:58;8.40;99.90
77582;DHT22;66726;52.388;9.986;2023-11-21T05:51:26;8.40;99.90
77582;DHT22;66726;52.388;9.986;2023-11-21T05:53:54;8.40;99.90
77582;DHT22;66726;52.388;9.986;2023-11-21T05:56:22;8.40;99.90
77582;DHT22;66726;52.388;9.986;2023-11-21T05:58:51;8.40;99.90
77582;DHT22;66726;52.388;9.986;2023-11-21T06:01:20;8.40;99.90
77582;DHT22;66726;52.388;9.986;2023-11-21T06:03:48;8.40;99.90
77582;DHT22;66726;52.388;9.986;2023-11-21T06:06:17;8.40;99.90
77582;DHT22;66726;52.388;9.986;2023-11-21T06:08:46;8.40;99.90
77582;DHT22;66726;52.388;9.986;2023-11-21T06:11:14;8.40;99.90
77582;DHT22;66726;52.388;9.986;2023-11-21T06:13:43;8.40;99.90
77582;DHT22;66726;52.388;9.986;2023-11-21T06:16:11;8.40;99.90
77582;DHT22;66726;52.388;9.986;2023-11-21T06:18:43;8.20;99.90
77582;DHT22;66726;52.388;9.986;2023-11-21T06:21:11;8.10;99.90
77582;DHT22;66726;52.388;9.986;2023-11-21T06:23:41;8.10;99.90
77582;DHT22;66726;52.388;9.986;2023-11-21T06:26:09;8.00;99.90
77582;DHT22;66726;52.388;9.986;2023-11-21T06:28:38;8.00;99.90
77582;DHT22;66726;52.388;9.986;2023-11-21T06:31:06;7.90;99.90
77582;DHT22;66726;52.388;9.986;2023-11-21T06:33:34;7.90;99.90
77582;DHT22;66726;52.388;9.986;2023-11-21T06:36:03;7.80;99.90
77582;DHT22;66726;52.388;9.986;2023-11-21T06:38:32;7.80;99.90
77582;DHT22;66726;52.388;9.986;2023-11-21T06:41:02;7.80;99.90
77582;DHT22;66726;52.388;9.986;2023-11-21T06:43:31;7.70;99.90
77582;DHT22;66726;52.388;9.986;2023-11-21T06:45:59;7.70;99.90
77582;DHT22;66726;52.388;9.986;2023-11-21T06:48:27;7.70;99.90
77582;DHT22;66726;52.388;9.986;2023-11-21T06:50:57;7.70;99.90
77582;DHT22;66726;52.388;9.986;2023-11-21T06:53:25;7.70;99.90
77582;DHT22;66726;52.388;9.986;2023-11-21T06:55:53;7.70;99.90
77582;DHT22;66726;52.388;9.986;2023-11-21T06:58:23;7.70;99.90
77582;DHT22;66726;52.388;9.986;2023-11-21T07:00:51;7.60;99.90
77582;DHT22;66726;52.388;9.986;2023-11-21T07:03:22;7.70;99.90
77582;DHT22;66726;52.388;9.986;2023-11-21T07:05:50;7.70;99.90
77582;DHT22;66726;52.388;9.986;2023-11-21T07:08:19;7.70;99.90
77582;DHT22;66726;52.388;9.986;2023-11-21T07:10:47;7.60;99.90
77582;DHT22;66726;52.388;9.986;2023-11-21T07:13:15;7.50;99.90
77582;DHT22;66726;52.388;9.986;2023-11-21T07:15:45;7.50;99.90
77582;DHT22;66726;52.388;9.986;2023-11-21T07:18:13;7.60;99.90
77582;DHT22;66726;52.388;9.986;2023-11-21T07:20:41;7.50;99.90
77582;DHT22;66726;52.388;9.986;2023-11-21T07:23:09;7.50;99.90
77582;DHT22;66726;52.388;9.986;2023-11-21T07:25:38;7.50;99.90
77582;DHT22;66726;52.388;9.986;2023-11-21T07:28:07;7.50;99.90
77582;DHT22;66726;52.388;9.986;2023-11-21T07:30:36;7.50;99.90
77582;DHT22;66726;52.388;9.986;2023-11-21T07:33:05;7.60;99.90
77582;DHT22;66726;52.388;9.986;2023-11-21T07:35:34;7.60;99.90
77582;DHT22;66726;52.388;9.986;2023-11-21T07:38:02;7.60;99.90
77582;DHT22;66726;52.388;9.986;2023-11-21T07:40:30;7.50;99.90
77582;DHT22;66726;52.388;9.986;2023-11-21T07:42:58;7.50;99.90
77582;DHT22;66726;52.388;9.986;2023-11-21T07:45:27;7.50;99.90
77582;DHT22;66726;52.388;9.986;2023-11-21T07:47:55;7.50;99.90
77582;DHT22;66726;52.388;9.986;2023-11-21T07:50:24;7.50;99.90
77582;DHT22;66726;52.388;9.986;2023-11-21T07:52:53;7.50;99.90
77582;DHT22;66726;52.388;9.986;2023-11-21T07:55:21;7.50;99.90
77582;DHT22;66726;52.388;9.986;2023-11-21T07:57:51;7.50;99.90
77582;DHT22;66726;52.388;9.986;2023-11-21T08:00:20;7.50;99.90
77582;DHT22;66726;52.388;9.986;2023-11-21T08:02:48;7.50;99.90
77582;DHT22;66726;52.388;9.986;2023-11-21T08:05:16;7.40;99.90
77582;DHT22;66726;52.388;9.986;2023-11-21T08:07:59;7.50;99.90
77582;DHT22;66726;52.388;9.986;2023-11-21T08:10:27;7.50;99.90
77582;DHT22;66726;52.388;9.986;2023-11-21T08:12:56;7.40;99.90
77582;DHT22;66726;52.388;9.986;2023-11-21T08:15:25;7.40;99.90
77582;DHT22;66726;52.388;9.986;2023-11-21T08:17:53;7.40;99.90
77582;DHT22;66726;52.388;9.986;2023-11-21T08:20:21;7.50;99.90
77582;DHT22;66726;52.388;9.986;2023-11-21T08:22:50;7.40;99.90
77582;DHT22;66726;52.388;9.986;2023-11-21T08:25:20;7.30;99.90
77582;DHT22;66726;52.388;9.986;2023-11-21T08:27:49;7.40;99.90
77582;DHT22;66726;52.388;9.986;2023-11-21T08:30:17;7.40;99.90
77582;DHT22;66726;52.388;9.986;2023-11-21T08:32:46;7.40;99.90
77582;DHT22;66726;52.388;9.986;2023-11-21T08:35:14;7.40;99.90
77582;DHT22;66726;52.388;9.986;2023-11-21T08:37:43;7.40;99.90
77582;DHT22;66726;52.388;9.986;2023-11-21T08:40:12;7.30;99.90
77582;DHT22;66726;52.388;9.986;2023-11-21T08:42:44;7.40;99.90
77582;DHT22;66726;52.388;9.986;2023-11-21T08:45:13;7.30;99.90
77582;DHT22;66726;52.388;9.986;2023-11-21T08:47:44;7.40;99.90
77582;DHT22;66726;52.388;9.986;2023-11-21T08:50:13;7.30;99.90
77582;DHT22;66726;52.388;9.986;2023-11-21T08:52:44;7.40;99.90
77582;DHT22;66726;52.388;9.986;2023-11-21T08:55:14;7.50;99.90
77582;DHT22;66726;52.388;9.986;2023-11-21T08:57:44;7.40;99.90
77582;DHT22;66726;52.388;9.986;2023-11-21T09:00:13;7.40;99.90
77582;DHT22;66726;52.388;9.986;2023-11-21T09:02:44;7.50;99.90
77582;DHT22;66726;52.388;9.986;2023-11-21T09:05:14;7.50;99.90
77582;DHT22;66726;52.388;9.986;2023-11-21T09:07:42;7.50;99.90
77582;DHT22;66726;52.388;9.986;2023-11-21T09:10:13;7.50;99.90
77582;DHT22;66726;52.388;9.986;2023-11-21T09:12:41;7.50;99.90
77582;DHT22;66726;52.388;9.986;2023-11-21T09:15:11;7.50;99.90
77582;DHT22;66726;52.388;9.986;2023-11-21T09:17:40;7.60;99.90
77582;DHT22;66726;52.388;9.986;2023-11-21T09:20:10;7.70;99.90
77582;DHT22;66726;52.388;9.986;2023-11-21T09:22:39;7.70;99.90
77582;DHT22;66726;52.388;9.986;2023-11-21T09:25:07;7.70;99.90
77582;DHT22;66726;52.388;9.986;2023-11-21T09:27:36;7.70;99.90
77582;DHT22;66726;52.388;9.986;2023-11-21T09:30:05;7.70;99.90
77582;DHT22;66726;52.388;9.986;2023-11-21T09:32:38;7.80;99.90
77582;DHT22;66726;52.388;9.986;2023-11-21T09:35:07;7.80;99.90
77582;DHT22;66726;52.388;9.986;2023-11-21T09:37:36;7.80;99.90
77582;DHT22;66726;52.388;9.986;2023-11-21T09:40:09;7.70;99.90
77582;DHT22;66726;52.388;9.986;2023-11-21T09:42:43;7.70;99.90
77582;DHT22;66726;52.388;9.986;2023-11-21T09:45:21;7.70;99.90
77582;DHT22;66726;52.388;9.986;2023-11-21T09:47:54;7.70;99.90
77582;DHT22;66726;52.388;9.986;2023-11-21T09:50:24;7.80;99.90
77582;DHT22;66726;52.388;9.986;2023-11-21T09:53:00;7.80;99.90
77582;DHT22;66726;52.388;9.986;2023-11-21T09:55:39;7.70;99.90
77582;DHT22;66726;52.388;9.986;2023-11-21T09:58:11;7.70;99.90
77582;DHT22;66726;52.388;9.986;2023-11-21T10:00:41;7.60;99.90
77582;DHT22;66726;52.388;9.986;2023-11-21T10:03:12;7.60;99.90
77582;DHT22;66726;52.388;9.986;2023-11-21T10:05:42;7.60;99.90
77582;DHT22;66726;52.388;9.986;2023-11-21T10:08:12;7.60;99.90
77582;DHT22;66726;52.388;9.986;2023-11-21T10:10:43;7.60;99.90
77582;DHT22;66726;52.388;9.986;2023-11-21T10:13:13;7.70;99.90
77582;DHT22;66726;52.388;9.986;2023-11-21T10:15:45;7.70;99.90
77582;DHT22;66726;52.388;9.986;2023-11-21T10:18:20;7.80;99.90
77582;DHT22;66726;52.388;9.986;2023-11-21T10:20:52;7.80;99.90
77582;DHT22;66726;52.388;9.986;2023-11-21T10:23:22;7.80;99.90
77582;DHT22;66726;52.388;9.986;2023-11-21T10:25:51;7.90;99.90
77582;DHT22;66726;52.388;9.986;2023-11-21T10:28:21;7.90;99.90
77582;DHT22;66726;52.388;9.986;2023-11-21T10:30:49;7.90;99.90
77582;DHT22;66726;52.388;9.986;2023-11-21T10:33:27;7.90;99.90
77582;DHT22;66726;52.388;9.986;2023-11-21T10:35:56;8.00;99.90
77582;DHT22;66726;52.388;9.986;2023-11-21T10:38:24;7.90;99.90
77582;DHT22;66726;52.388;9.986;2023-11-21T10:40:54;7.90;99.90
77582;DHT22;66726;52.388;9.986;2023-11-21T10:43:25;7.80;99.90
77582;DHT22;66726;52.388;9.986;2023-11-21T10:45:57;7.90;99.90
77582;DHT22;66726;52.388;9.986;2023-11-21T10:48:28;7.80;99.90
77582;DHT22;66726;52.388;9.986;2023-11-21T10:50:56;7.80;99.90
77582;DHT22;66726;52.388;9.986;2023-11-21T10:53:28;7.80;99.90
77582;DHT22;66726;52.388;9.986;2023-11-21T10:56:02;7.90;99.90
77582;DHT22;66726;52.388;9.986;2023-11-21T10:58:35;7.90;99.90
77582;DHT22;66726;52.388;9.986;2023-11-21T11:01:07;7.80;99.90
77582;DHT22;66726;52.388;9.986;2023-11-21T11:03:39;7.80;99.90
77582;DHT22;66726;52.388;9.986;2023-11-21T11:06:09;7.80;99.90
77582;DHT22;66726;52.388;9.986;2023-11-21T11:08:39;7.80;99.90
77582;DHT22;66726;52.388;9.986;2023-11-21T11:11:10;7.80;99.90
77582;DHT22;66726;52.388;9.986;2023-11-21T11:13:39;7.80;99.90
77582;DHT22;66726;52.388;9.986;2023-11-21T11:16:13;7.80;99.90
77582;DHT22;66726;52.388;9.986;2023-11-21T11:18:46;7.80;99.90
77582;DHT22;66726;52.388;9.986;2023-11-21T11:21:24;7.90;99.90
77582;DHT22;66726;52.388;9.986;2023-11-21T11:24:08;7.80;99.90
77582;DHT22;66726;52.388;9.986;2023-11-21T11:26:59;7.80;99.90
77582;DHT22;66726;52.388;9.986;2023-11-21T11:29:41;7.70;99.90
77582;DHT22;66726;52.388;9.986;2023-11-21T11:32:25;7.70;99.90
77582;DHT22;66726;52.388;9.986;2023-11-21T11:35:06;7.70;99.90
77582;DHT22;66726;52.388;9.986;2023-11-21T11:37:38;7.80;99.90
77582;DHT22;66726;52.388;9.986;2023-11-21T11:40:07;7.90;99.90
77582;DHT22;66726;52.388;9.986;2023-11-21T11:42:36;7.90;99.90
77582;DHT22;66726;52.388;9.986;2023-11-21T11:45:17;8.00;99.90
77582;DHT22;66726;52.388;9.986;2023-11-21T11:47:47;8.00;99.90
77582;DHT22;66726;52.388;9.986;2023-11-21T11:50:17;8.10;99.90
77582;DHT22;66726;52.388;9.986;2023-11-21T11:52:48;8.10;99.90
77582;DHT22;66726;52.388;9.986;2023-11-21T11:55:18;8.10;99.90
77582;DHT22;66726;52.388;9.986;2023-11-21T11:57:49;8.10;99.90
77582;DHT22;66726;52.388;9.986;2023-11-21T12:00:21;8.10;99.90
77582;DHT22;66726;52.388;9.986;2023-11-21T12:03:06;8.10;99.90
77582;DHT22;66726;52.388;9.986;2023-11-21T12:05:37;8.00;99.90
77582;DHT22;66726;52.388;9.986;2023-11-21T12:08:07;8.00;99.90
77582;DHT22;66726;52.388;9.986;2023-11-21T12:10:37;8.10;99.90
77582;DHT22;66726;52.388;9.986;2023-11-21T12:13:08;7.90;99.90
77582;DHT22;66726;52.388;9.986;2023-11-21T12:15:39;8.10;99.90
77582;DHT22;66726;52.388;9.986;2023-11-21T12:18:09;8.10;99.90
77582;DHT22;66726;52.388;9.986;2023-11-21T12:20:38;8.10;99.90
77582;DHT22;66726;52.388;9.986;2023-11-21T12:23:08;8.10;99.90
77582;DHT22;66726;52.388;9.986;2023-11-21T12:25:38;8.10;99.90
77582;DHT22;66726;52.388;9.986;2023-11-21T12:28:09;8.10;99.90
77582;DHT22;66726;52.388;9.986;2023-11-21T12:30:38;8.10;99.90
77582;DHT22;66726;52.388;9.986;2023-11-21T12:33:06;8.10;99.90
77582;DHT22;66726;52.388;9.986;2023-11-21T12:35:38;8.10;99.90
77582;DHT22;66726;52.388;9.986;2023-11-21T12:38:07;8.10;99.90
77582;DHT22;66726;52.388;9.986;2023-11-21T12:40:35;8.10;99.90
77582;DHT22;66726;52.388;9.986;2023-11-21T12:43:04;8.10;99.90
77582;DHT22;66726;52.388;9.986;2023-11-21T12:45:36;8.10;99.90
77582;DHT22;66726;52.388;9.986;2023-11-21T12:48:05;8.00;99.90
77582;DHT22;66726;52.388;9.986;2023-11-21T12:50:39;8.10;99.90
77582;DHT22;66726;52.388;9.986;2023-11-21T12:53:09;8.00;99.90
77582;DHT22;66726;52.388;9.986;2023-11-21T12:55:40;8.00;99.90
77582;DHT22;66726;52.388;9.986;2023-11-21T12:58:09;8.10;99.90
77582;DHT22;66726;52.388;9.986;2023-11-21T13:00:42;8.00;99.90
77582;DHT22;66726;52.388;9.986;2023-11-21T13:03:13;8.00;99.90
77582;DHT22;66726;52.388;9.986;2023-11-21T13:05:47;8.00;99.90
77582;DHT22;66726;52.388;9.986;2023-11-21T13:08:18;8.00;99.90
77582;DHT22;66726;52.388;9.986;2023-11-21T13:10:51;8.00;99.90
77582;DHT22;66726;52.388;9.986;2023-11-21T13:13:22;8.00;99.90
77582;DHT22;66726;52.388;9.986;2023-11-21T13:15:53;8.00;99.90
77582;DHT22;66726;52.388;9.986;2023-11-21T13:21:33;8.00;99.90
77582;DHT22;66726;52.388;9.986;2023-11-21T13:24:02;8.10;99.90
77582;DHT22;66726;52.388;9.986;2023-11-21T13:26:31;8.10;99.90
77582;DHT22;66726;52.388;9.986;2023-11-21T13:29:00;8.00;99.90
77582;DHT22;66726;52.388;9.986;2023-11-21T13:31:31;7.90;99.90
77582;DHT22;66726;52.388;9.986;2023-11-21T13:34:03;7.90;99.90
77582;DHT22;66726;52.388;9.986;2023-11-21T13:36:36;7.90;99.90
77582;DHT22;66726;52.388;9.986;2023-11-21T13:39:04;7.90;99.90
77582;DHT22;66726;52.388;9.986;2023-11-21T13:41:35;7.90;99.90
77582;DHT22;66726;52.388;9.986;2023-11-21T13:44:06;7.90;99.90
77582;DHT22;66726;52.388;9.986;2023-11-21T13:46:43;7.80;99.90
77582;DHT22;66726;52.388;9.986;2023-11-21T13:49:12;7.80;99.90
77582;DHT22;66726;52.388;9.986;2023-11-21T13:51:43;7.80;99.90
77582;DHT22;66726;52.388;9.986;2023-11-21T13:54:14;7.90;99.90
77582;DHT22;66726;52.388;9.986;2023-11-21T13:56:42;7.80;99.90
77582;DHT22;66726;52.388;9.986;2023-11-21T13:59:12;7.90;99.90
77582;DHT22;66726;52.388;9.986;2023-11-21T14:01:48;7.80;99.90
77582;DHT22;66726;52.388;9.986;2023-11-21T14:04:24;7.80;99.90
77582;DHT22;66726;52.388;9.986;2023-11-21T14:07:15;7.80;99.90
77582;DHT22;66726;52.388;9.986;2023-11-21T14:09:53;7.70;99.90
77582;DHT22;66726;52.388;9.986;2023-11-21T14:12:21;7.80;99.90
77582;DHT22;66726;52.388;9.986;2023-11-21T14:14:50;7.70;99.90
77582;DHT22;66726;52.388;9.986;2023-11-21T14:17:18;7.70;99.90
77582;DHT22;66726;52.388;9.986;2023-11-21T14:19:49;7.80;99.90
77582;DHT22;66726;52.388;9.986;2023-11-21T14:22:19;7.70;99.90
77582;DHT22;66726;52.388;9.986;2023-11-21T14:24:48;7.80;99.90
77582;DHT22;66726;52.388;9.986;2023-11-21T14:27:19;7.70;99.90
77582;DHT22;66726;52.388;9.986;2023-11-21T14:29:47;7.70;99.90
77582;DHT22;66726;52.388;9.986;2023-11-21T14:32:15;7.70;99.90
77582;DHT22;66726;52.388;9.986;2023-11-21T14:34:44;7.70;99.90
77582;DHT22;66726;52.388;9.986;2023-11-21T14:37:14;7.70;99.90
77582;DHT22;66726;52.388;9.986;2023-11-21T14:39:43;7.60;99.90
77582;DHT22;66726;52.388;9.986;2023-11-21T14:42:15;7.60;99.90
77582;DHT22;66726;52.388;9.986;2023-11-21T14:44:50;7.60;99.90
77582;DHT22;66726;52.388;9.986;2023-11-21T14:47:18;7.60;99.90
77582;DHT22;66726;52.388;9.986;2023-11-21T14:49:52;7.60;99.90
77582;DHT22;66726;52.388;9.986;2023-11-21T14:52:21;7.70;99.90
77582;DHT22;66726;52.388;9.986;2023-11-21T14:55:01;7.60;99.90
77582;DHT22;66726;52.388;9.986;2023-11-21T14:57:53;7.70;99.90
77582;DHT22;66726;52.388;9.986;2023-11-21T15:00:21;7.60;99.90
77582;DHT22;66726;52.388;9.986;2023-11-21T15:03:15;7.60;99.90
77582;DHT22;66726;52.388;9.986;2023-11-21T15:06:05;7.60;99.90
77582;DHT22;66726;52.388;9.986;2023-11-21T15:08:49;7.60;99.90
77582;DHT22;66726;52.388;9.986;2023-11-21T15:11:25;7.50;99.90
77582;DHT22;66726;52.388;9.986;2023-11-21T15:13:57;7.50;99.90
77582;DHT22;66726;52.388;9.986;2023-11-21T15:16:26;7.50;99.90
77582;DHT22;66726;52.388;9.986;2023-11-21T15:18:55;7.50;99.90
77582;DHT22;66726;52.388;9.986;2023-11-21T15:21:23;7.50;99.90
77582;DHT22;66726;52.388;9.986;2023-11-21T15:23:51;7.40;99.90
77582;DHT22;66726;52.388;9.986;2023-11-21T15:26:19;7.40;99.90
77582;DHT22;66726;52.388;9.986;2023-11-21T15:28:50;7.40;99.90
77582;DHT22;66726;52.388;9.986;2023-11-21T15:31:18;7.40;99.90
77582;DHT22;66726;52.388;9.986;2023-11-21T15:33:51;7.40;99.90
77582;DHT22;66726;52.388;9.986;2023-11-21T15:36:21;7.30;99.90
77582;DHT22;66726;52.388;9.986;2023-11-21T15:38:49;7.30;99.90
77582;DHT22;66726;52.388;9.986;2023-11-21T15:41:17;7.30;99.90
77582;DHT22;66726;52.388;9.986;2023-11-21T15:43:45;7.30;99.90
77582;DHT22;66726;52.388;9.986;2023-11-21T15:46:17;7.20;99.90
77582;DHT22;66726;52.388;9.986;2023-11-21T15:48:46;7.30;99.90
77582;DHT22;66726;52.388;9.986;2023-11-21T15:51:18;7.20;99.90
77582;DHT22;66726;52.388;9.986;2023-11-21T15:53:46;7.30;99.90
77582;DHT22;66726;52.388;9.986;2023-11-21T15:56:14;7.30;99.90
77582;DHT22;66726;52.388;9.986;2023-11-21T15:58:44;7.40;99.90
77582;DHT22;66726;52.388;9.986;2023-11-21T16:01:18;7.40;99.90
77582;DHT22;66726;52.388;9.986;2023-11-21T16:03:48;7.30;99.90
77582;DHT22;66726;52.388;9.986;2023-11-21T16:06:17;7.30;99.90